Time;durP1;ratioP1;P1;durP2;ratioP2;P2;SDS_P1;SDS_P2;PMS_P1;PMS_P2;Temp;Humidity;BMP_temperature;BMP_pressure;BME280_temperature;BME280_humidity;BME280_pressure;Samples;Min_cycle;Max_cycle;Signal;HPM_P1;HPM_P2
2023/08/28 00:00:12;;;;;;;5.10;2.63;;;12.50;99.90;;;;;;5014847;28;20036;-54
2023/08/28 00:02:40;;;;;;;4.82;2.70;;;12.50;99.90;;;;;;5007583;28;20037;-53
2023/08/28 00:05:06;;;;;;;4.88;2.08;;;12.40;99.90;;;;;;4991166;28;20088;-53
2023/08/28 00:07:31;;;;;;;4.22;2.47;;;12.40;99.90;;;;;;5006656;28;20056;-53
2023/08/28 00:09:57;;;;;;;6.32;2.72;;;12.40;99.90;;;;;;5014755;28;20037;-52
2023/08/28 00:12:22;;;;;;;5.18;2.03;;;12.50;99.90;;;;;;5007103;28;20112;-53
2023/08/28 00:14:48;;;;;;;3.38;2.00;;;12.40;99.90;;;;;;5011779;28;20490;-51
2023/08/28 00:17:13;;;;;;;3.45;2.40;;;12.30;99.90;;;;;;5015246;28;20026;-54
2023/08/28 00:19:39;;;;;;;3.67;1.98;;;12.30;99.90;;;;;;5016592;28;20026;-54
2023/08/28 00:22:05;;;;;;;3.08;2.00;;;12.20;99.90;;;;;;5020438;28;20083;-50
2023/08/28 00:24:30;;;;;;;3.45;1.98;;;12.20;99.90;;;;;;5012205;28;20037;-54
2023/08/28 00:26:56;;;;;;;4.60;2.25;;;12.30;99.90;;;;;;5010985;28;20051;-54
2023/08/28 00:29:21;;;;;;;5.35;2.53;;;12.20;99.90;;;;;;4991875;28;20059;-52
2023/08/28 00:31:47;;;;;;;5.43;2.35;;;12.20;99.90;;;;;;5005434;28;20026;-53
2023/08/28 00:34:12;;;;;;;3.97;2.10;;;12.20;99.90;;;;;;5003638;28;20068;-52
2023/08/28 00:36:38;;;;;;;3.63;2.25;;;12.20;99.90;;;;;;5000540;28;20164;-49
2023/08/28 00:39:05;;;;;;;5.80;2.75;;;12.40;99.90;;;;;;4997518;28;20285;-49
2023/08/28 00:41:31;;;;;;;5.20;2.58;;;12.50;99.90;;;;;;5016508;28;20053;-51
2023/08/28 00:43:57;;;;;;;5.78;2.25;;;12.40;99.90;;;;;;5007239;28;20398;-50
2023/08/28 00:46:22;;;;;;;4.07;2.20;;;12.40;99.90;;;;;;5006360;28;20021;-49
2023/08/28 00:48:49;;;;;;;4.15;2.47;;;12.30;99.90;;;;;;4990465;28;20029;-52
2023/08/28 00:51:15;;;;;;;3.65;2.50;;;12.30;99.90;;;;;;4989949;28;20038;-50
2023/08/28 00:53:40;;;;;;;4.70;2.72;;;12.20;99.90;;;;;;4989701;28;20041;-50
2023/08/28 00:56:06;;;;;;;4.22;2.60;;;12.20;99.90;;;;;;4999917;28;20118;-54
2023/08/28 00:58:33;;;;;;;7.13;3.50;;;12.10;99.90;;;;;;5012873;28;20034;-53
2023/08/28 01:00:59;;;;;;;4.65;2.65;;;12.10;99.90;;;;;;4992738;28;20045;-51
2023/08/28 01:03:25;;;;;;;5.22;2.33;;;12.10;99.90;;;;;;4999609;28;20129;-53
2023/08/28 01:06:02;;;;;;;3.55;2.28;;;12.10;99.90;;;;;;4990626;28;20042;-55
2023/08/28 01:08:42;;;;;;;5.93;2.75;;;12.10;99.90;;;;;;4988656;28;20092;-53
2023/08/28 01:11:24;;;;;;;4.32;2.40;;;12.10;99.90;;;;;;5006917;28;20105;-53
2023/08/28 01:13:56;;;;;;;4.68;2.50;;;12.10;99.90;;;;;;5000934;28;20063;-50
2023/08/28 01:16:25;;;;;;;4.78;2.40;;;12.10;99.90;;;;;;4993465;28;20083;-54
2023/08/28 01:18:51;;;;;;;3.93;2.50;;;12.10;99.90;;;;;;5011488;28;20049;-54
2023/08/28 01:21:18;;;;;;;4.63;2.63;;;12.10;99.90;;;;;;5004591;28;20033;-51
2023/08/28 01:23:54;;;;;;;5.97;2.95;;;12.00;99.90;;;;;;4995027;28;20037;-49
2023/08/28 01:26:21;;;;;;;5.45;2.58;;;12.00;99.90;;;;;;4988563;28;20113;-52
2023/08/28 01:28:46;;;;;;;6.47;2.97;;;12.10;99.90;;;;;;5004676;28;20030;-49
2023/08/28 01:31:12;;;;;;;4.97;3.20;;;12.20;99.90;;;;;;4997714;28;20049;-51
2023/08/28 01:33:39;;;;;;;4.88;2.88;;;12.20;99.90;;;;;;5009462;28;20107;-54
2023/08/28 01:36:17;;;;;;;4.25;2.63;;;12.10;99.90;;;;;;4989463;28;20041;-53
2023/08/28 01:38:56;;;;;;;4.57;2.70;;;12.10;99.90;;;;;;4987303;28;20477;-52
2023/08/28 01:41:24;;;;;;;4.30;2.88;;;12.00;99.90;;;;;;5011984;28;20030;-52
2023/08/28 01:43:53;;;;;;;3.97;2.75;;;11.90;99.90;;;;;;4989314;28;20247;-54
2023/08/28 01:46:19;;;;;;;5.35;2.92;;;11.90;99.90;;;;;;5000162;28;20030;-50
2023/08/28 01:48:52;;;;;;;5.90;2.90;;;11.90;99.90;;;;;;4991144;28;20045;-49
2023/08/28 01:51:18;;;;;;;4.28;2.90;;;11.90;99.90;;;;;;4989546;28;20041;-49
2023/08/28 01:53:44;;;;;;;5.85;3.75;;;11.90;99.90;;;;;;4992486;28;20038;-52
2023/08/28 01:56:10;;;;;;;5.45;3.38;;;11.90;99.90;;;;;;4988875;28;20497;-48
2023/08/28 01:58:44;;;;;;;5.28;3.30;;;11.90;99.90;;;;;;4995198;28;20026;-52
2023/08/28 02:01:11;;;;;;;5.22;3.33;;;11.90;99.90;;;;;;4991675;28;20026;-52
2023/08/28 02:03:40;;;;;;;5.57;3.50;;;11.90;99.90;;;;;;5008176;28;20037;-50
2023/08/28 02:06:06;;;;;;;;;;;11.90;99.90;;;;;;5007194;28;20037;-50
2023/08/28 02:08:32;;;;;;;6.45;3.35;;;11.90;99.90;;;;;;4998757;28;19926;-52
2023/08/28 02:10:58;;;;;;;6.78;3.50;;;11.90;99.90;;;;;;4991775;28;20518;-51
2023/08/28 02:13:24;;;;;;;5.97;3.50;;;11.90;99.90;;;;;;5004743;28;20034;-50
2023/08/28 02:15:50;;;;;;;5.90;3.58;;;11.90;99.90;;;;;;4992674;28;20037;-51
2023/08/28 02:18:15;;;;;;;5.93;3.25;;;11.90;99.90;;;;;;4993902;28;20030;-50
2023/08/28 02:20:41;;;;;;;6.60;3.45;;;12.00;99.90;;;;;;5020627;28;20030;-49
2023/08/28 02:23:07;;;;;;;5.65;3.30;;;12.00;99.90;;;;;;5002430;28;20114;-49
2023/08/28 02:25:32;;;;;;;5.53;3.42;;;12.00;99.90;;;;;;5001157;28;20033;-50
2023/08/28 02:27:58;;;;;;;5.22;3.45;;;12.00;99.90;;;;;;4999412;28;20041;-49
2023/08/28 02:30:25;;;;;;;4.90;3.25;;;11.90;99.90;;;;;;5005300;28;20037;-53
2023/08/28 02:32:52;;;;;;;7.32;3.22;;;11.90;99.90;;;;;;4992697;28;20129;-49
2023/08/28 02:35:17;;;;;;;5.43;3.60;;;11.90;99.90;;;;;;4992236;28;20117;-54
2023/08/28 02:37:43;;;;;;;5.03;3.30;;;11.90;99.90;;;;;;4996431;28;20029;-49
2023/08/28 02:40:09;;;;;;;5.75;3.28;;;11.90;99.90;;;;;;4991833;28;20390;-50
2023/08/28 02:42:36;;;;;;;6.45;3.42;;;12.00;99.90;;;;;;4997068;28;20034;-53
2023/08/28 02:45:02;;;;;;;5.32;3.55;;;12.20;99.90;;;;;;4991645;28;20488;-53
2023/08/28 02:47:28;;;;;;;4.75;3.38;;;12.20;99.90;;;;;;5014598;28;20167;-53
2023/08/28 02:49:53;;;;;;;5.88;3.65;;;12.20;99.90;;;;;;5000825;28;20124;-50
2023/08/28 02:52:19;;;;;;;7.80;3.78;;;12.20;99.90;;;;;;4991069;28;20044;-50
2023/08/28 02:54:45;;;;;;;5.95;3.70;;;12.20;99.90;;;;;;4993084;28;20034;-52
2023/08/28 02:57:10;;;;;;;4.95;3.17;;;12.20;99.90;;;;;;5011123;28;20021;-49
2023/08/28 02:59:36;;;;;;;5.82;3.60;;;12.20;99.90;;;;;;5000417;28;20022;-53
2023/08/28 03:02:01;;;;;;;5.07;3.43;;;12.10;99.90;;;;;;5023696;28;20033;-50
2023/08/28 03:04:27;;;;;;;5.43;3.23;;;12.10;99.90;;;;;;4992714;28;20033;-48
2023/08/28 03:06:53;;;;;;;5.67;3.67;;;12.10;99.90;;;;;;4992518;28;20040;-49
2023/08/28 03:09:18;;;;;;;6.70;3.80;;;12.00;99.90;;;;;;4992948;28;20033;-52
2023/08/28 03:11:44;;;;;;;6.83;3.90;;;12.00;99.90;;;;;;4975040;28;20461;-49
2023/08/28 03:14:10;;;;;;;7.33;3.70;;;12.00;99.90;;;;;;5009548;28;20042;-51
2023/08/28 03:16:35;;;;;;;6.47;3.90;;;12.00;99.90;;;;;;5007094;28;20029;-48
2023/08/28 03:19:01;;;;;;;6.43;3.83;;;12.00;99.90;;;;;;5015099;28;20052;-50
2023/08/28 03:21:26;;;;;;;6.57;4.00;;;12.00;99.90;;;;;;4999104;28;20049;-48
2023/08/28 03:23:52;;;;;;;6.27;4.07;;;12.00;99.90;;;;;;4993827;28;20033;-48
2023/08/28 03:26:18;;;;;;;9.00;4.00;;;12.00;99.90;;;;;;4991166;28;20383;-49
2023/08/28 03:28:44;;;;;;;9.97;4.10;;;11.90;99.90;;;;;;5010809;28;20409;-52
2023/08/28 03:31:11;;;;;;;7.40;4.43;;;12.00;99.90;;;;;;5020651;28;20525;-49
2023/08/28 03:33:36;;;;;;;7.80;4.20;;;12.00;99.90;;;;;;4998251;28;20105;-51
2023/08/28 03:36:04;;;;;;;9.80;4.13;;;11.90;99.90;;;;;;5008824;28;20026;-49
2023/08/28 03:38:30;;;;;;;6.50;3.90;;;11.90;99.90;;;;;;4992770;28;20075;-49
2023/08/28 03:40:55;;;;;;;7.37;4.30;;;11.90;99.90;;;;;;5005740;28;20623;-49
2023/08/28 03:43:21;;;;;;;10.40;4.57;;;11.90;99.90;;;;;;4994258;28;20092;-50
2023/08/28 03:45:47;;;;;;;7.47;4.10;;;12.00;99.90;;;;;;5010293;28;20037;-49
2023/08/28 03:48:12;;;;;;;7.43;4.60;;;11.90;99.90;;;;;;5003085;28;20083;-49
2023/08/28 03:50:38;;;;;;;8.50;4.53;;;11.90;99.90;;;;;;5011197;28;20030;-54
2023/08/28 03:53:04;;;;;;;8.10;4.50;;;11.90;99.90;;;;;;5004545;28;20037;-50
2023/08/28 03:55:30;;;;;;;7.70;4.93;;;11.90;99.90;;;;;;4991524;28;20041;-51
2023/08/28 03:58:02;;;;;;;8.50;4.20;;;11.90;99.90;;;;;;5001718;28;20029;-53
2023/08/28 04:00:28;;;;;;;9.60;4.57;;;11.90;99.90;;;;;;5010560;28;20037;-54
2023/08/28 04:02:54;;;;;;;8.97;4.40;;;11.90;99.90;;;;;;5025829;28;20052;-54
2023/08/28 04:05:21;;;;;;;9.07;4.90;;;11.80;99.90;;;;;;5002672;28;20498;-53
2023/08/28 04:07:49;;;;;;;11.37;4.53;;;11.90;99.90;;;;;;5003594;28;20499;-55
2023/08/28 04:10:14;;;;;;;9.53;5.03;;;11.90;99.90;;;;;;5002763;28;20034;-54
2023/08/28 04:12:40;;;;;;;7.23;4.53;;;11.90;99.90;;;;;;5001679;28;20037;-55
2023/08/28 04:15:10;;;;;;;10.03;5.30;;;11.90;99.90;;;;;;5001250;28;20029;-52
2023/08/28 04:17:38;;;;;;;9.60;5.20;;;11.90;99.90;;;;;;5013505;28;20042;-49
2023/08/28 04:20:15;;;;;;;8.83;5.07;;;12.00;99.90;;;;;;5011177;28;20030;-54
2023/08/28 04:22:44;;;;;;;7.73;5.07;;;12.00;99.90;;;;;;4993732;28;20029;-53
2023/08/28 04:25:12;;;;;;;9.67;4.93;;;11.90;99.90;;;;;;5010139;28;20049;-53
2023/08/28 04:27:39;;;;;;;10.83;4.87;;;11.90;99.90;;;;;;5006189;28;20038;-50
2023/08/28 04:30:06;;;;;;;10.10;5.53;;;11.90;99.90;;;;;;4986237;28;20025;-51
2023/08/28 04:32:32;;;;;;;9.77;5.22;;;11.90;99.90;;;;;;5010795;28;20133;-50
2023/08/28 04:34:58;;;;;;;9.07;4.73;;;11.90;99.90;;;;;;4993233;28;20022;-53
2023/08/28 04:37:24;;;;;;;9.73;5.45;;;11.90;99.90;;;;;;5002506;28;20104;-51
2023/08/28 04:39:50;;;;;;;7.25;4.35;;;11.90;99.90;;;;;;4993150;28;20618;-49
2023/08/28 04:42:16;;;;;;;8.07;5.03;;;11.90;99.90;;;;;;4992965;28;20113;-52
2023/08/28 04:44:42;;;;;;;9.38;4.57;;;11.80;99.90;;;;;;4993471;28;20672;-52
2023/08/28 04:47:08;;;;;;;11.07;4.87;;;11.80;99.90;;;;;;4989340;28;20049;-52
2023/08/28 04:49:33;;;;;;;11.85;5.53;;;11.70;99.90;;;;;;4993050;28;20124;-53
2023/08/28 04:51:59;;;;;;;9.80;5.40;;;11.70;99.90;;;;;;4993110;28;20087;-53
2023/08/28 04:54:24;;;;;;;9.55;4.75;;;11.60;99.90;;;;;;4992643;28;20072;-49
2023/08/28 04:56:50;;;;;;;8.57;4.80;;;11.50;99.90;;;;;;5010774;28;20080;-51
2023/08/28 04:59:16;;;;;;;11.00;4.73;;;11.50;99.90;;;;;;5010563;28;20028;-52
2023/08/28 05:01:41;;;;;;;9.20;4.97;;;11.50;99.90;;;;;;5010608;28;20457;-49
2023/08/28 05:04:07;;;;;;;9.75;5.30;;;11.50;99.90;;;;;;4993088;28;20079;-50
2023/08/28 05:06:33;;;;;;;10.45;5.25;;;11.70;99.90;;;;;;4993221;28;20034;-50
2023/08/28 05:08:59;;;;;;;10.05;5.72;;;11.80;99.90;;;;;;4993355;28;20034;-50
2023/08/28 05:11:24;;;;;;;9.27;4.97;;;11.70;99.90;;;;;;4993259;28;20038;-52
2023/08/28 05:13:51;;;;;;;9.43;4.88;;;11.80;99.90;;;;;;4992792;28;20034;-53
2023/08/28 05:16:17;;;;;;;10.10;5.13;;;11.90;99.90;;;;;;4993279;28;20120;-54
2023/08/28 05:18:42;;;;;;;9.60;4.78;;;12.00;99.90;;;;;;5011125;28;20065;-53
2023/08/28 05:21:08;;;;;;;9.35;4.80;;;12.00;99.90;;;;;;4993648;28;20033;-53
2023/08/28 05:23:34;;;;;;;8.30;4.77;;;12.00;99.90;;;;;;5011260;28;20030;-54
2023/08/28 05:25:59;;;;;;;8.98;4.68;;;12.00;99.90;;;;;;4993718;28;20131;-53
2023/08/28 05:28:31;;;;;;;11.82;4.93;;;12.00;99.90;;;;;;4994081;28;20041;-50
2023/08/28 05:30:59;;;;;;;7.75;5.10;;;12.10;99.90;;;;;;4996257;28;20470;-49
2023/08/28 05:33:25;;;;;;;8.98;4.90;;;12.10;99.90;;;;;;4992959;28;20086;-49
2023/08/28 05:35:50;;;;;;;10.98;4.80;;;12.20;99.90;;;;;;4993150;28;20034;-52
2023/08/28 05:38:16;;;;;;;8.75;4.65;;;12.20;99.90;;;;;;4993195;28;20688;-49
2023/08/28 05:40:42;;;;;;;8.35;4.72;;;12.30;99.90;;;;;;4993144;28;20440;-49
2023/08/28 05:43:08;;;;;;;8.98;4.28;;;12.30;99.90;;;;;;5013715;28;20026;-52
2023/08/28 05:45:33;;;;;;;10.13;4.70;;;12.30;99.90;;;;;;4997046;28;20041;-53
2023/08/28 05:47:59;;;;;;;8.43;4.72;;;12.30;99.90;;;;;;4996735;28;20033;-54
2023/08/28 05:50:25;;;;;;;11.00;5.07;;;12.30;99.90;;;;;;4997025;28;20104;-50
2023/08/28 05:52:51;;;;;;;8.18;4.70;;;12.30;99.90;;;;;;4996901;28;20552;-50
2023/08/28 05:55:16;;;;;;;9.07;5.07;;;12.40;99.90;;;;;;4996965;28;20121;-52
2023/08/28 05:57:42;;;;;;;8.07;4.70;;;12.40;99.90;;;;;;4996827;28;20034;-55
2023/08/28 06:00:08;;;;;;;7.75;4.45;;;12.40;99.90;;;;;;4996689;28;20125;-54
2023/08/28 06:02:41;;;;;;;7.75;5.28;;;12.50;99.90;;;;;;4996562;28;20034;-54
2023/08/28 06:05:08;;;;;;;8.93;5.33;;;12.50;99.90;;;;;;4996627;28;20168;-52
2023/08/28 06:07:34;;;;;;;9.05;4.95;;;12.60;99.90;;;;;;4996736;28;20034;-52
2023/08/28 06:10:00;;;;;;;7.85;4.60;;;12.70;99.90;;;;;;5014233;28;20061;-53
2023/08/28 06:12:25;;;;;;;7.22;4.85;;;12.70;99.90;;;;;;5014091;28;20112;-50
2023/08/28 06:14:51;;;;;;;8.35;4.90;;;12.80;99.90;;;;;;4996477;28;20080;-50
2023/08/28 06:17:18;;;;;;;8.57;4.97;;;12.90;99.90;;;;;;4996373;28;20026;-52
2023/08/28 06:19:44;;;;;;;8.27;5.13;;;13.00;99.90;;;;;;4996449;28;20026;-53
2023/08/28 06:22:10;;;;;;;7.97;4.65;;;13.20;99.90;;;;;;4996463;28;20026;-51
2023/08/28 06:24:35;;;;;;;9.77;4.38;;;13.20;99.90;;;;;;4996589;28;20029;-51
2023/08/28 06:27:02;;;;;;;7.45;4.78;;;13.30;99.90;;;;;;5014348;28;20161;-52
2023/08/28 06:29:28;;;;;;;7.90;4.43;;;13.40;99.90;;;;;;4996556;28;20033;-49
2023/08/28 06:31:53;;;;;;;8.20;5.35;;;13.40;99.90;;;;;;4996319;28;20034;-52
2023/08/28 06:34:19;;;;;;;7.15;4.15;;;13.60;99.90;;;;;;5014069;28;20034;-51
2023/08/28 06:36:45;;;;;;;9.63;4.63;;;13.80;99.90;;;;;;5013888;28;20096;-51
2023/08/28 06:39:12;;;;;;;8.70;4.07;;;13.80;99.90;;;;;;5013619;28;20495;-49
2023/08/28 06:41:38;;;;;;;8.93;4.70;;;13.90;99.90;;;;;;5013412;28;20030;-54
2023/08/28 06:44:04;;;;;;;9.82;5.05;;;14.00;99.90;;;;;;4995900;28;20490;-51
2023/08/28 06:46:31;;;;;;;8.05;4.78;;;14.10;99.90;;;;;;5013704;28;20026;-52
2023/08/28 06:48:56;;;;;;;10.15;4.60;;;14.20;99.90;;;;;;5014567;28;20072;-52
2023/08/28 06:51:22;;;;;;;8.88;4.50;;;14.30;99.90;;;;;;5014232;28;20117;-51
2023/08/28 06:53:49;;;;;;;7.80;4.63;;;14.40;99.90;;;;;;5013736;28;20112;-50
2023/08/28 06:56:15;;;;;;;10.73;4.82;;;14.40;99.90;;;;;;5014564;28;20029;-55
2023/08/28 06:58:40;;;;;;;9.13;4.72;;;14.40;99.90;;;;;;4995929;28;20038;-55
2023/08/28 07:01:06;;;;;;;28.60;13.13;;;14.50;99.90;;;;;;5013599;28;20030;-54
2023/08/28 07:03:32;;;;;;;8.90;5.22;;;14.60;99.90;;;;;;5013434;28;20065;-54
2023/08/28 07:05:57;;;;;;;22.83;11.70;;;14.60;99.90;;;;;;5013890;28;20026;-55
2023/08/28 07:08:23;;;;;;;10.05;5.45;;;14.70;99.90;;;;;;5011309;28;20437;-55
2023/08/28 07:10:49;;;;;;;8.02;4.30;;;14.80;99.90;;;;;;5013336;28;20442;-50
2023/08/28 07:13:14;;;;;;;6.72;4.10;;;14.90;99.90;;;;;;5012901;28;20203;-49
2023/08/28 07:15:40;;;;;;;7.40;4.43;;;14.90;99.90;;;;;;5012766;28;20026;-48
2023/08/28 07:18:06;;;;;;;8.88;5.40;;;15.00;99.90;;;;;;5012616;28;20110;-48
2023/08/28 07:20:32;;;;;;;8.63;4.28;;;15.00;99.90;;;;;;5012960;28;20033;-49
2023/08/28 07:22:58;;;;;;;7.95;4.70;;;15.20;99.90;;;;;;5012723;28;20540;-50
2023/08/28 07:25:23;;;;;;;8.35;4.53;;;15.30;99.90;;;;;;5012872;28;20033;-54
2023/08/28 07:27:50;;;;;;;9.48;4.32;;;15.40;99.90;;;;;;5013464;28;20400;-53
2023/08/28 07:30:16;;;;;;;8.25;4.57;;;15.60;99.90;;;;;;4995044;28;20128;-48
2023/08/28 07:32:41;;;;;;;6.65;4.30;;;15.70;99.90;;;;;;5012133;28;20116;-49
2023/08/28 07:35:08;;;;;;;8.70;4.00;;;15.70;99.90;;;;;;4994615;28;20048;-49
2023/08/28 07:37:34;;;;;;;8.98;4.60;;;15.80;99.90;;;;;;5012489;28;20072;-48
2023/08/28 07:40:00;;;;;;;9.68;5.15;;;15.90;99.90;;;;;;5012120;28;20034;-48
2023/08/28 07:42:26;;;;;;;8.75;3.97;;;16.10;99.90;;;;;;5012226;28;20073;-50
2023/08/28 07:44:52;;;;;;;9.00;4.45;;;16.20;99.90;;;;;;5012216;28;20394;-49
2023/08/28 07:47:18;;;;;;;11.80;4.78;;;16.30;99.90;;;;;;5012241;28;20030;-48
2023/08/28 07:49:44;;;;;;;9.00;4.20;;;16.40;99.90;;;;;;5011952;28;20483;-49
2023/08/28 07:52:10;;;;;;;9.15;4.78;;;16.40;99.90;;;;;;5011943;28;20129;-48
2023/08/28 07:54:36;;;;;;;7.38;4.07;;;16.60;99.90;;;;;;5011947;28;20125;-50
2023/08/28 07:57:04;;;;;;;7.63;3.75;;;16.60;99.90;;;;;;5012412;28;20092;-49
2023/08/28 07:59:30;;;;;;;7.68;3.60;;;16.70;99.90;;;;;;5011735;28;20034;-49
2023/08/28 08:01:57;;;;;;;7.88;3.90;;;16.80;99.90;;;;;;5011651;28;20044;-48
2023/08/28 08:04:23;;;;;;;8.02;3.95;;;16.80;99.90;;;;;;5010874;28;20038;-50
2023/08/28 08:06:49;;;;;;;5.95;3.45;;;16.90;99.90;;;;;;5011851;28;20394;-48
2023/08/28 08:09:14;;;;;;;5.78;3.17;;;16.90;99.90;;;;;;5011499;28;20429;-49
2023/08/28 08:11:40;;;;;;;2.95;2.15;;;16.80;99.90;;;;;;5011538;28;20034;-51
2023/08/28 08:14:05;;;;;;;6.80;3.38;;;16.80;99.90;;;;;;5011467;28;20398;-49
2023/08/28 08:16:31;;;;;;;5.95;3.38;;;16.80;99.90;;;;;;5011849;28;20029;-50
2023/08/28 08:18:56;;;;;;;5.53;3.20;;;16.90;99.90;;;;;;5011371;28;20026;-50
2023/08/28 08:21:22;;;;;;;6.00;3.63;;;16.90;99.90;;;;;;4993807;28;20056;-50
2023/08/28 08:23:49;;;;;;;8.80;3.10;;;16.90;99.90;;;;;;5011543;28;20037;-51
2023/08/28 08:26:15;;;;;;;9.57;3.88;;;16.90;99.90;;;;;;5011416;28;20042;-50
2023/08/28 08:28:41;;;;;;;7.88;3.25;;;17.00;99.90;;;;;;5011376;28;20034;-50
2023/08/28 08:31:07;;;;;;;7.85;3.60;;;17.00;99.90;;;;;;5011473;28;20044;-49
2023/08/28 08:33:32;;;;;;;6.82;3.20;;;17.20;99.90;;;;;;5011126;28;20030;-50
2023/08/28 08:35:58;;;;;;;8.95;3.85;;;17.20;99.90;;;;;;5012167;28;20056;-51
2023/08/28 08:38:24;;;;;;;6.07;3.17;;;17.30;99.90;;;;;;5011758;28;20037;-49
2023/08/28 08:40:52;;;;;;;8.38;3.85;;;17.40;99.90;;;;;;5011759;28;20037;-51
2023/08/28 08:43:19;;;;;;;8.27;2.97;;;17.50;99.90;;;;;;5011728;28;20049;-50
2023/08/28 08:45:47;;;;;;;5.97;3.00;;;17.70;99.90;;;;;;5011839;28;20037;-51
2023/08/28 08:48:17;;;;;;;7.32;3.00;;;17.90;99.90;;;;;;5011663;28;20034;-52
2023/08/28 08:50:46;;;;;;;6.35;3.28;;;18.10;99.90;;;;;;5011716;28;20030;-50
2023/08/28 08:53:28;;;;;;;5.95;3.42;;;18.00;99.90;;;;;;5011315;28;20041;-54
2023/08/28 08:55:57;;;;;;;5.47;2.42;;;18.00;99.90;;;;;;5011654;28;20621;-48
2023/08/28 08:58:23;;;;;;;;;;;18.10;99.90;;;;;;5012113;28;20029;-51
2023/08/28 09:00:50;;;;;;;4.65;2.42;;;18.20;99.90;;;;;;5011721;28;19917;-51
2023/08/28 09:03:17;;;;;;;4.35;2.55;;;18.30;99.90;;;;;;5011312;28;20088;-48
2023/08/28 09:05:44;;;;;;;7.63;2.92;;;18.30;99.90;;;;;;5011734;28;20034;-51
2023/08/28 09:08:10;;;;;;;5.50;2.53;;;18.30;99.90;;;;;;5011414;28;20025;-50
2023/08/28 09:10:36;;;;;;;5.38;2.80;;;18.20;99.90;;;;;;5011777;28;20033;-51
2023/08/28 09:13:02;;;;;;;5.43;3.22;;;18.30;99.90;;;;;;5011467;28;20029;-53
2023/08/28 09:15:29;;;;;;;4.15;2.25;;;18.30;99.90;;;;;;5012459;28;20046;-50
2023/08/28 09:17:55;;;;;;;4.70;1.60;;;18.40;99.90;;;;;;5017326;28;20191;-49
2023/08/28 09:20:21;;;;;;;3.47;1.60;;;18.50;99.90;;;;;;5017116;28;20049;-51
2023/08/28 09:22:53;;;;;;;2.63;1.80;;;18.60;99.90;;;;;;5016226;28;20038;-51
2023/08/28 09:25:23;;;;;;;4.88;2.20;;;18.70;99.90;;;;;;5017339;28;20037;-51
2023/08/28 09:27:51;;;;;;;5.40;1.63;;;18.60;99.90;;;;;;5017439;28;20309;-50
2023/08/28 09:30:29;;;;;;;2.97;1.80;;;18.50;99.90;;;;;;5017151;28;20045;-52
2023/08/28 09:33:00;;;;;;;3.08;1.60;;;18.50;99.90;;;;;;5017027;28;20040;-50
2023/08/28 09:35:38;;;;;;;3.60;1.60;;;18.70;99.90;;;;;;5017452;28;20038;-54
2023/08/28 09:38:03;;;;;;;2.95;1.75;;;18.80;99.90;;;;;;5016985;28;20030;-54
2023/08/28 09:40:35;;;;;;;3.05;1.58;;;18.80;99.90;;;;;;5017371;28;20030;-52
2023/08/28 09:43:09;;;;;;;4.22;2.03;;;18.90;99.90;;;;;;5017142;28;20061;-48
2023/08/28 09:45:36;;;;;;;4.97;1.90;;;18.80;99.90;;;;;;5017604;28;20037;-52
2023/08/28 09:48:07;;;;;;;2.60;1.67;;;18.80;99.90;;;;;;5017183;28;20030;-50
2023/08/28 09:50:34;;;;;;;3.90;1.63;;;18.70;99.90;;;;;;5017150;28;20029;-49
2023/08/28 09:53:10;;;;;;;4.15;1.70;;;18.80;99.90;;;;;;5016878;28;20514;-49
2023/08/28 09:55:48;;;;;;;2.80;1.30;;;18.90;99.90;;;;;;5017083;28;20113;-50
2023/08/28 09:58:15;;;;;;;3.60;1.80;;;18.90;99.90;;;;;;5016937;28;20034;-50
2023/08/28 10:00:40;;;;;;;4.28;1.50;;;19.00;99.90;;;;;;5017110;28;20058;-51
2023/08/28 10:03:11;;;;;;;2.22;1.23;;;19.10;99.90;;;;;;5016828;28;20442;-50
2023/08/28 10:05:37;;;;;;;1.80;0.80;;;19.00;99.90;;;;;;5017139;28;20044;-53
2023/08/28 10:08:08;;;;;;;1.75;0.90;;;19.00;99.90;;;;;;5016842;28;20394;-51
2023/08/28 10:10:35;;;;;;;1.95;0.80;;;19.00;99.90;;;;;;5016968;28;20025;-54
2023/08/28 10:13:04;;;;;;;1.33;0.77;;;18.90;99.90;;;;;;5016820;28;20445;-53
2023/08/28 10:15:32;;;;;;;2.33;0.85;;;18.90;99.90;;;;;;5017007;28;20442;-50
2023/08/28 10:18:03;;;;;;;2.42;1.00;;;18.90;99.90;;;;;;5017008;28;20390;-53
2023/08/28 10:20:30;;;;;;;1.02;0.88;;;19.00;99.90;;;;;;5016998;28;20443;-51
2023/08/28 10:22:57;;;;;;;1.40;0.60;;;19.10;99.90;;;;;;5016696;28;20026;-52
2023/08/28 10:25:26;;;;;;;1.00;0.70;;;19.20;99.90;;;;;;5016896;28;20033;-54
2023/08/28 10:27:53;;;;;;;2.17;1.10;;;19.30;99.90;;;;;;5014772;28;20034;-53
2023/08/28 10:30:21;;;;;;;1.80;1.25;;;19.40;99.90;;;;;;5033359;28;20052;-53
2023/08/28 10:32:48;;;;;;;6.38;1.30;;;19.20;99.90;;;;;;5033149;28;20045;-53
2023/08/28 10:35:16;;;;;;;1.42;1.00;;;19.10;99.90;;;;;;5033221;28;20111;-50
2023/08/28 10:37:43;;;;;;;2.38;1.08;;;19.10;99.90;;;;;;5030056;28;20034;-52
2023/08/28 10:40:11;;;;;;;3.05;1.30;;;19.00;99.90;;;;;;5019792;28;20026;-49
2023/08/28 10:42:38;;;;;;;3.47;1.23;;;18.90;99.90;;;;;;5022184;28;20108;-50
2023/08/28 10:45:04;;;;;;;4.47;1.60;;;18.90;99.90;;;;;;5027996;28;20092;-52
2023/08/28 10:47:30;;;;;;;2.05;1.40;;;18.80;99.90;;;;;;5033570;28;20505;-53
2023/08/28 10:49:56;;;;;;;2.88;1.38;;;18.90;99.90;;;;;;5033095;28;20049;-53
2023/08/28 10:52:22;;;;;;;1.63;1.33;;;19.00;99.90;;;;;;5033046;28;20045;-53
2023/08/28 10:54:48;;;;;;;2.70;1.45;;;19.00;99.90;;;;;;5033301;28;20045;-53
2023/08/28 10:57:27;;;;;;;2.15;1.20;;;19.30;99.90;;;;;;5033340;28;20474;-52
2023/08/28 10:59:54;;;;;;;3.22;1.70;;;19.40;99.90;;;;;;5033406;28;20117;-51
2023/08/28 11:02:20;;;;;;;2.58;1.65;;;19.60;99.90;;;;;;5032867;28;20048;-51
2023/08/28 11:04:46;;;;;;;2.65;1.50;;;19.60;99.90;;;;;;5032910;28;20103;-53
2023/08/28 11:07:32;;;;;;;2.20;1.40;;;19.60;99.90;;;;;;5016334;28;20030;-53
2023/08/28 11:10:20;;;;;;;4.63;1.70;;;19.60;99.90;;;;;;5005457;28;20073;-49
2023/08/28 11:12:56;;;;;;;4.03;2.13;;;19.60;99.90;;;;;;5013007;28;20038;-51
2023/08/28 11:15:32;;;;;;;2.95;1.70;;;19.70;99.90;;;;;;5010970;28;20030;-52
2023/08/28 11:18:18;;;;;;;2.88;1.60;;;19.70;99.90;;;;;;5012096;28;20457;-49
2023/08/28 11:20:57;;;;;;;2.03;1.30;;;19.70;99.90;;;;;;5009344;28;20145;-53
2023/08/28 11:23:25;;;;;;;1.90;1.10;;;19.60;99.90;;;;;;5020476;28;20083;-52
2023/08/28 11:25:52;;;;;;;1.95;1.40;;;19.60;99.90;;;;;;5028504;28;20121;-50
2023/08/28 11:28:25;;;;;;;2.30;1.40;;;19.50;99.90;;;;;;5032299;28;20532;-48
2023/08/28 11:30:51;;;;;;;2.30;1.60;;;19.60;99.90;;;;;;5032857;28;20030;-51
2023/08/28 11:33:19;;;;;;;1.60;1.00;;;19.60;99.90;;;;;;5032531;28;20083;-50
2023/08/28 11:35:45;;;;;;;2.15;1.35;;;19.70;99.90;;;;;;5032731;28;20053;-53
2023/08/28 11:38:11;;;;;;;2.13;1.10;;;19.70;99.90;;;;;;5032501;28;20508;-53
2023/08/28 11:40:37;;;;;;;3.78;1.25;;;19.80;99.90;;;;;;5031511;28;20022;-53
2023/08/28 11:43:08;;;;;;;2.42;1.30;;;19.80;99.90;;;;;;5032381;28;20036;-53
2023/08/28 11:45:34;;;;;;;1.88;1.30;;;19.80;99.90;;;;;;5032163;28;20038;-52
2023/08/28 11:48:01;;;;;;;3.78;1.20;;;19.60;99.90;;;;;;5031768;28;20112;-49
2023/08/28 11:50:27;;;;;;;1.80;0.98;;;19.60;99.90;;;;;;5031920;28;20056;-52
2023/08/28 11:52:53;;;;;;;2.13;1.30;;;19.60;99.90;;;;;;5016840;28;20033;-49
2023/08/28 11:55:21;;;;;;;7.35;2.10;;;19.70;99.90;;;;;;5012066;28;20485;-49
2023/08/28 11:57:50;;;;;;;2.72;1.33;;;19.80;99.90;;;;;;4994410;28;20034;-51
2023/08/28 12:00:17;;;;;;;3.03;1.50;;;19.80;99.90;;;;;;5014475;28;20032;-53
2023/08/28 12:02:47;;;;;;;2.63;1.45;;;19.80;99.90;;;;;;5017357;28;20033;-52
2023/08/28 12:05:17;;;;;;;2.30;1.50;;;19.70;99.90;;;;;;5016881;28;20026;-53
2023/08/28 12:07:43;;;;;;;3.47;1.73;;;19.80;99.90;;;;;;5020565;28;20060;-52
2023/08/28 12:10:10;;;;;;;3.38;1.50;;;19.70;99.90;;;;;;5014092;28;20120;-54
2023/08/28 12:12:36;;;;;;;3.53;1.90;;;19.80;99.90;;;;;;5014776;28;20164;-54
2023/08/28 12:15:03;;;;;;;5.32;1.70;;;19.80;99.90;;;;;;5025859;28;20088;-51
2023/08/28 12:17:29;;;;;;;1.90;1.63;;;19.80;99.90;;;;;;5021316;28;20371;-51
2023/08/28 12:19:55;;;;;;;4.00;1.70;;;19.90;99.90;;;;;;5024133;28;20033;-51
2023/08/28 12:22:21;;;;;;;2.38;1.40;;;19.80;99.90;;;;;;5015952;28;20026;-52
2023/08/28 12:24:48;;;;;;;3.00;1.30;;;19.80;99.90;;;;;;5016499;28;20064;-51
2023/08/28 12:27:16;;;;;;;2.17;1.50;;;19.90;99.90;;;;;;5020077;28;20041;-53
2023/08/28 12:29:42;;;;;;;2.55;1.58;;;20.00;99.90;;;;;;5019603;28;20030;-51
2023/08/28 12:32:18;;;;;;;3.63;1.60;;;20.10;99.90;;;;;;5013472;28;20458;-54
2023/08/28 12:34:45;;;;;;;4.07;1.50;;;20.20;99.90;;;;;;5018318;28;20092;-51
2023/08/28 12:37:13;;;;;;;4.00;1.70;;;20.30;99.90;;;;;;5015787;28;20047;-53
2023/08/28 12:39:49;;;;;;;3.13;1.40;;;20.30;99.90;;;;;;5012999;28;20505;-54
2023/08/28 12:42:17;;;;;;;4.55;1.45;;;20.30;99.90;;;;;;5019769;28;20087;-53
2023/08/28 12:44:43;;;;;;;2.97;1.30;;;20.30;99.90;;;;;;5011290;28;20026;-50